sensor_id;sensor_type;location;lat;lon;timestamp;temperature;humidity
16827;DHT22;8530;49.540;8.576;2023-02-28T00:00:45;0.60;43.20
16827;DHT22;8530;49.540;8.576;2023-02-28T00:03:11;0.60;43.20
16827;DHT22;8530;49.540;8.576;2023-02-28T00:05:38;0.60;43.40
16827;DHT22;8530;49.540;8.576;2023-02-28T00:08:05;0.60;43.50
16827;DHT22;8530;49.540;8.576;2023-02-28T00:10:32;0.60;43.50
16827;DHT22;8530;49.540;8.576;2023-02-28T00:13:02;0.60;43.60
16827;DHT22;8530;49.540;8.576;2023-02-28T00:15:30;0.60;43.60
16827;DHT22;8530;49.540;8.576;2023-02-28T00:17:57;0.60;43.80
16827;DHT22;8530;49.540;8.576;2023-02-28T00:27:07;0.50;44.00
16827;DHT22;8530;49.540;8.576;2023-02-28T01:16:23;-0.20;45.70
16827;DHT22;8530;49.540;8.576;2023-02-28T01:18:51;-0.30;45.70
16827;DHT22;8530;49.540;8.576;2023-02-28T01:21:19;-0.30;45.90
16827;DHT22;8530;49.540;8.576;2023-02-28T01:23:47;-0.40;46.00
16827;DHT22;8530;49.540;8.576;2023-02-28T01:26:16;-0.40;46.20
16827;DHT22;8530;49.540;8.576;2023-02-28T01:28:43;-0.50;46.30
16827;DHT22;8530;49.540;8.576;2023-02-28T01:31:10;-0.50;46.40
16827;DHT22;8530;49.540;8.576;2023-02-28T01:33:39;-0.60;46.50
16827;DHT22;8530;49.540;8.576;2023-02-28T01:36:08;-0.60;46.70
16827;DHT22;8530;49.540;8.576;2023-02-28T01:38:36;-0.70;46.70
16827;DHT22;8530;49.540;8.576;2023-02-28T01:41:03;-0.70;46.90
16827;DHT22;8530;49.540;8.576;2023-02-28T01:43:31;-0.70;47.10
16827;DHT22;8530;49.540;8.576;2023-02-28T01:46:00;-0.70;47.20
16827;DHT22;8530;49.540;8.576;2023-02-28T01:48:29;-0.80;47.30
16827;DHT22;8530;49.540;8.576;2023-02-28T01:51:01;-0.80;47.40
16827;DHT22;8530;49.540;8.576;2023-02-28T01:53:34;-0.80;47.60
16827;DHT22;8530;49.540;8.576;2023-02-28T01:56:05;-0.80;47.70
16827;DHT22;8530;49.540;8.576;2023-02-28T01:58:32;-0.80;47.70
16827;DHT22;8530;49.540;8.576;2023-02-28T02:00:59;-0.80;47.90
16827;DHT22;8530;49.540;8.576;2023-02-28T02:03:29;-0.80;48.00
16827;DHT22;8530;49.540;8.576;2023-02-28T02:09:19;-0.80;48.30
16827;DHT22;8530;49.540;8.576;2023-02-28T02:11:46;-0.80;48.20
16827;DHT22;8530;49.540;8.576;2023-02-28T02:14:34;-0.80;48.50
16827;DHT22;8530;49.540;8.576;2023-02-28T02:17:11;-0.80;48.70
16827;DHT22;8530;49.540;8.576;2023-02-28T02:23:29;-0.80;48.90
16827;DHT22;8530;49.540;8.576;2023-02-28T02:26:16;-0.90;48.90
16827;DHT22;8530;49.540;8.576;2023-02-28T02:29:21;-1.00;49.00
16827;DHT22;8530;49.540;8.576;2023-02-28T02:35:03;-0.90;49.40
16827;DHT22;8530;49.540;8.576;2023-02-28T02:37:38;-0.90;50.00
16827;DHT22;8530;49.540;8.576;2023-02-28T02:40:13;-0.90;49.60
16827;DHT22;8530;49.540;8.576;2023-02-28T02:42:44;-0.90;49.70
16827;DHT22;8530;49.540;8.576;2023-02-28T02:45:17;-0.90;49.80
16827;DHT22;8530;49.540;8.576;2023-02-28T02:47:45;-0.90;49.90
16827;DHT22;8530;49.540;8.576;2023-02-28T02:50:17;-0.90;50.10
16827;DHT22;8530;49.540;8.576;2023-02-28T02:52:48;-0.90;50.20
16827;DHT22;8530;49.540;8.576;2023-02-28T02:55:18;-0.90;50.40
16827;DHT22;8530;49.540;8.576;2023-02-28T02:57:48;-0.90;50.50
16827;DHT22;8530;49.540;8.576;2023-02-28T03:00:17;-0.80;50.70
16827;DHT22;8530;49.540;8.576;2023-02-28T03:02:47;-0.80;50.70
16827;DHT22;8530;49.540;8.576;2023-02-28T03:05:19;-0.80;50.90
16827;DHT22;8530;49.540;8.576;2023-02-28T03:07:47;-0.70;51.10
16827;DHT22;8530;49.540;8.576;2023-02-28T03:10:29;-0.70;51.40
16827;DHT22;8530;49.540;8.576;2023-02-28T03:13:05;-0.60;51.60
16827;DHT22;8530;49.540;8.576;2023-02-28T03:15:40;-0.60;51.40
16827;DHT22;8530;49.540;8.576;2023-02-28T03:18:18;-0.60;51.50
16827;DHT22;8530;49.540;8.576;2023-02-28T03:20:57;-0.60;51.60
16827;DHT22;8530;49.540;8.576;2023-02-28T03:23:31;-0.60;51.90
16827;DHT22;8530;49.540;8.576;2023-02-28T03:26:05;-0.60;51.90
16827;DHT22;8530;49.540;8.576;2023-02-28T03:28:41;-0.60;51.90
16827;DHT22;8530;49.540;8.576;2023-02-28T03:31:15;-0.70;51.90
16827;DHT22;8530;49.540;8.576;2023-02-28T03:33:46;-0.70;52.00
16827;DHT22;8530;49.540;8.576;2023-02-28T03:36:23;-0.70;52.10
16827;DHT22;8530;49.540;8.576;2023-02-28T03:38:55;-0.70;52.30
16827;DHT22;8530;49.540;8.576;2023-02-28T03:41:25;-0.70;52.30
16827;DHT22;8530;49.540;8.576;2023-02-28T03:43:55;-0.80;52.30
16827;DHT22;8530;49.540;8.576;2023-02-28T03:46:27;-0.80;52.60
16827;DHT22;8530;49.540;8.576;2023-02-28T03:49:00;-0.80;52.70
16827;DHT22;8530;49.540;8.576;2023-02-28T03:51:30;-0.80;52.70
16827;DHT22;8530;49.540;8.576;2023-02-28T03:53:59;-0.90;52.70
16827;DHT22;8530;49.540;8.576;2023-02-28T03:56:33;-0.90;52.80
16827;DHT22;8530;49.540;8.576;2023-02-28T03:59:04;-0.90;53.10
16827;DHT22;8530;49.540;8.576;2023-02-28T04:01:35;-0.90;53.10
16827;DHT22;8530;49.540;8.576;2023-02-28T04:04:03;-0.90;53.80
16827;DHT22;8530;49.540;8.576;2023-02-28T04:06:33;-0.90;53.30
16827;DHT22;8530;49.540;8.576;2023-02-28T04:09:00;-0.90;53.40
16827;DHT22;8530;49.540;8.576;2023-02-28T04:11:32;-0.90;53.50
16827;DHT22;8530;49.540;8.576;2023-02-28T04:14:00;-0.90;53.70
16827;DHT22;8530;49.540;8.576;2023-02-28T04:16:27;-0.90;53.70
16827;DHT22;8530;49.540;8.576;2023-02-28T04:18:54;-0.90;53.90
16827;DHT22;8530;49.540;8.576;2023-02-28T04:21:27;-0.90;53.90
16827;DHT22;8530;49.540;8.576;2023-02-28T04:23:55;-0.90;54.10
16827;DHT22;8530;49.540;8.576;2023-02-28T04:26:27;-0.90;54.10
16827;DHT22;8530;49.540;8.576;2023-02-28T04:28:55;-0.90;54.30
16827;DHT22;8530;49.540;8.576;2023-02-28T04:31:21;-0.90;54.40
16827;DHT22;8530;49.540;8.576;2023-02-28T04:33:48;-0.90;54.60
16827;DHT22;8530;49.540;8.576;2023-02-28T04:36:15;-0.90;54.80
16827;DHT22;8530;49.540;8.576;2023-02-28T04:38:43;-0.90;54.90
16827;DHT22;8530;49.540;8.576;2023-02-28T04:41:12;-0.90;55.00
16827;DHT22;8530;49.540;8.576;2023-02-28T04:43:39;-0.90;55.00
16827;DHT22;8530;49.540;8.576;2023-02-28T04:46:06;-0.80;55.20
16827;DHT22;8530;49.540;8.576;2023-02-28T04:48:35;-0.90;55.20
16827;DHT22;8530;49.540;8.576;2023-02-28T04:51:02;-0.90;55.30
16827;DHT22;8530;49.540;8.576;2023-02-28T04:53:30;-0.90;55.60
16827;DHT22;8530;49.540;8.576;2023-02-28T04:55:57;-0.90;55.60
16827;DHT22;8530;49.540;8.576;2023-02-28T04:58:25;-0.80;55.90
16827;DHT22;8530;49.540;8.576;2023-02-28T05:00:53;-0.90;55.80
16827;DHT22;8530;49.540;8.576;2023-02-28T05:03:21;-0.80;56.10
16827;DHT22;8530;49.540;8.576;2023-02-28T05:05:48;-0.80;56.10
16827;DHT22;8530;49.540;8.576;2023-02-28T05:08:14;-0.80;56.30
16827;DHT22;8530;49.540;8.576;2023-02-28T05:10:41;-0.80;56.40
16827;DHT22;8530;49.540;8.576;2023-02-28T05:13:10;-0.80;56.60
16827;DHT22;8530;49.540;8.576;2023-02-28T05:15:39;-0.80;56.60
16827;DHT22;8530;49.540;8.576;2023-02-28T05:18:05;-0.80;56.60
16827;DHT22;8530;49.540;8.576;2023-02-28T05:20:32;-0.70;56.90
16827;DHT22;8530;49.540;8.576;2023-02-28T05:22:59;-0.70;57.00
16827;DHT22;8530;49.540;8.576;2023-02-28T05:25:26;-0.70;57.20
16827;DHT22;8530;49.540;8.576;2023-02-28T05:27:53;-0.60;57.20
16827;DHT22;8530;49.540;8.576;2023-02-28T05:30:20;-0.70;57.30
16827;DHT22;8530;49.540;8.576;2023-02-28T05:32:51;-0.60;57.40
16827;DHT22;8530;49.540;8.576;2023-02-28T05:35:18;-0.60;57.50
16827;DHT22;8530;49.540;8.576;2023-02-28T05:37:44;-0.60;57.60
16827;DHT22;8530;49.540;8.576;2023-02-28T05:40:12;-0.50;57.90
16827;DHT22;8530;49.540;8.576;2023-02-28T05:42:38;-0.60;57.80
16827;DHT22;8530;49.540;8.576;2023-02-28T05:45:06;-0.60;58.00
16827;DHT22;8530;49.540;8.576;2023-02-28T05:47:34;-0.50;58.10
16827;DHT22;8530;49.540;8.576;2023-02-28T05:50:03;-0.50;58.20
16827;DHT22;8530;49.540;8.576;2023-02-28T05:52:30;-0.50;58.40
16827;DHT22;8530;49.540;8.576;2023-02-28T05:54:57;-0.50;58.50
16827;DHT22;8530;49.540;8.576;2023-02-28T05:57:24;-0.50;58.60
16827;DHT22;8530;49.540;8.576;2023-02-28T05:59:50;-0.50;58.70
16827;DHT22;8530;49.540;8.576;2023-02-28T06:02:17;-0.40;58.80
16827;DHT22;8530;49.540;8.576;2023-02-28T06:04:45;-0.50;58.80
16827;DHT22;8530;49.540;8.576;2023-02-28T06:07:13;-0.50;59.00
16827;DHT22;8530;49.540;8.576;2023-02-28T06:09:40;-0.50;58.90
16827;DHT22;8530;49.540;8.576;2023-02-28T06:12:07;-0.50;59.00
16827;DHT22;8530;49.540;8.576;2023-02-28T06:14:35;-0.50;59.20
16827;DHT22;8530;49.540;8.576;2023-02-28T06:17:03;-0.60;59.10
16827;DHT22;8530;49.540;8.576;2023-02-28T06:19:30;-0.60;59.30
16827;DHT22;8530;49.540;8.576;2023-02-28T06:21:57;-0.60;59.30
16827;DHT22;8530;49.540;8.576;2023-02-28T06:24:26;-0.60;59.40
16827;DHT22;8530;49.540;8.576;2023-02-28T06:26:54;-0.60;59.60
16827;DHT22;8530;49.540;8.576;2023-02-28T06:29:21;-0.60;59.80
16827;DHT22;8530;49.540;8.576;2023-02-28T06:31:48;-0.60;59.80
16827;DHT22;8530;49.540;8.576;2023-02-28T06:34:15;-0.50;60.00
16827;DHT22;8530;49.540;8.576;2023-02-28T06:36:43;-0.50;60.10
16827;DHT22;8530;49.540;8.576;2023-02-28T06:39:10;-0.40;60.40
16827;DHT22;8530;49.540;8.576;2023-02-28T06:41:38;-0.30;60.60
16827;DHT22;8530;49.540;8.576;2023-02-28T06:44:05;-0.20;60.80
16827;DHT22;8530;49.540;8.576;2023-02-28T06:46:38;0.00;61.00
16827;DHT22;8530;49.540;8.576;2023-02-28T06:49:05;0.10;61.10
16827;DHT22;8530;49.540;8.576;2023-02-28T06:51:35;0.20;61.00
16827;DHT22;8530;49.540;8.576;2023-02-28T06:54:02;0.40;61.20
16827;DHT22;8530;49.540;8.576;2023-02-28T06:56:29;0.60;61.50
16827;DHT22;8530;49.540;8.576;2023-02-28T06:58:57;0.70;61.50
16827;DHT22;8530;49.540;8.576;2023-02-28T07:01:24;0.90;61.30
16827;DHT22;8530;49.540;8.576;2023-02-28T07:03:51;1.00;61.30
16827;DHT22;8530;49.540;8.576;2023-02-28T07:06:18;1.20;61.30
16827;DHT22;8530;49.540;8.576;2023-02-28T07:08:45;1.40;61.30
16827;DHT22;8530;49.540;8.576;2023-02-28T07:11:12;1.50;60.90
16827;DHT22;8530;49.540;8.576;2023-02-28T07:13:38;1.60;60.70
16827;DHT22;8530;49.540;8.576;2023-02-28T07:16:09;1.70;60.30
16827;DHT22;8530;49.540;8.576;2023-02-28T07:18:36;1.70;60.10
16827;DHT22;8530;49.540;8.576;2023-02-28T07:21:04;1.80;59.90
16827;DHT22;8530;49.540;8.576;2023-02-28T07:23:32;1.90;59.70
16827;DHT22;8530;49.540;8.576;2023-02-28T07:25:59;2.00;59.60
16827;DHT22;8530;49.540;8.576;2023-02-28T07:28:26;2.10;59.10
16827;DHT22;8530;49.540;8.576;2023-02-28T07:30:52;2.20;58.90
16827;DHT22;8530;49.540;8.576;2023-02-28T07:33:20;2.20;58.50
16827;DHT22;8530;49.540;8.576;2023-02-28T07:35:47;2.40;58.50
16827;DHT22;8530;49.540;8.576;2023-02-28T07:38:14;2.40;58.50
16827;DHT22;8530;49.540;8.576;2023-02-28T07:40:40;2.60;58.60
16827;DHT22;8530;49.540;8.576;2023-02-28T07:43:07;2.80;58.60
16827;DHT22;8530;49.540;8.576;2023-02-28T07:45:34;2.90;58.30
16827;DHT22;8530;49.540;8.576;2023-02-28T07:48:01;3.10;58.30
16827;DHT22;8530;49.540;8.576;2023-02-28T07:50:29;3.30;58.00
16827;DHT22;8530;49.540;8.576;2023-02-28T07:52:57;3.50;57.60
16827;DHT22;8530;49.540;8.576;2023-02-28T07:55:24;3.80;57.80
16827;DHT22;8530;49.540;8.576;2023-02-28T07:57:50;4.00;57.40
16827;DHT22;8530;49.540;8.576;2023-02-28T08:00:17;4.30;57.70
16827;DHT22;8530;49.540;8.576;2023-02-28T08:02:44;4.60;58.40
16827;DHT22;8530;49.540;8.576;2023-02-28T08:05:11;5.40;61.20
16827;DHT22;8530;49.540;8.576;2023-02-28T08:07:39;6.40;64.20
16827;DHT22;8530;49.540;8.576;2023-02-28T08:10:07;7.50;64.20
16827;DHT22;8530;49.540;8.576;2023-02-28T08:12:35;8.20;62.50
16827;DHT22;8530;49.540;8.576;2023-02-28T08:15:02;8.80;61.90
16827;DHT22;8530;49.540;8.576;2023-02-28T08:17:29;9.40;62.10
16827;DHT22;8530;49.540;8.576;2023-02-28T08:19:56;10.30;62.20
16827;DHT22;8530;49.540;8.576;2023-02-28T08:22:22;11.30;61.40
16827;DHT22;8530;49.540;8.576;2023-02-28T08:24:50;12.10;59.70
16827;DHT22;8530;49.540;8.576;2023-02-28T08:27:17;12.40;54.20
16827;DHT22;8530;49.540;8.576;2023-02-28T08:29:44;12.70;53.10
16827;DHT22;8530;49.540;8.576;2023-02-28T08:32:10;13.00;51.60
16827;DHT22;8530;49.540;8.576;2023-02-28T08:34:39;13.30;50.50
16827;DHT22;8530;49.540;8.576;2023-02-28T08:37:05;13.90;50.50
16827;DHT22;8530;49.540;8.576;2023-02-28T08:39:34;14.30;49.00
16827;DHT22;8530;49.540;8.576;2023-02-28T08:42:02;15.00;48.20
16827;DHT22;8530;49.540;8.576;2023-02-28T08:44:29;15.50;46.50
16827;DHT22;8530;49.540;8.576;2023-02-28T08:46:55;15.70;44.60
16827;DHT22;8530;49.540;8.576;2023-02-28T08:49:22;15.60;41.30
16827;DHT22;8530;49.540;8.576;2023-02-28T08:51:49;15.50;40.10
16827;DHT22;8530;49.540;8.576;2023-02-28T08:54:15;15.30;39.10
16827;DHT22;8530;49.540;8.576;2023-02-28T08:56:45;15.10;36.50
16827;DHT22;8530;49.540;8.576;2023-02-28T08:59:13;14.90;36.40
16827;DHT22;8530;49.540;8.576;2023-02-28T09:01:40;15.00;36.30
16827;DHT22;8530;49.540;8.576;2023-02-28T09:04:09;15.20;35.30
16827;DHT22;8530;49.540;8.576;2023-02-28T09:06:37;14.90;33.20
16827;DHT22;8530;49.540;8.576;2023-02-28T09:09:03;14.10;30.90
16827;DHT22;8530;49.540;8.576;2023-02-28T09:11:33;12.90;28.60
16827;DHT22;8530;49.540;8.576;2023-02-28T09:14:00;11.60;27.90
16827;DHT22;8530;49.540;8.576;2023-02-28T09:16:30;10.60;27.70
16827;DHT22;8530;49.540;8.576;2023-02-28T09:18:57;9.50;28.10
16827;DHT22;8530;49.540;8.576;2023-02-28T09:21:24;8.50;28.10
16827;DHT22;8530;49.540;8.576;2023-02-28T09:23:51;7.80;28.30
16827;DHT22;8530;49.540;8.576;2023-02-28T09:26:20;7.30;28.50
16827;DHT22;8530;49.540;8.576;2023-02-28T09:28:47;6.90;28.60
16827;DHT22;8530;49.540;8.576;2023-02-28T09:31:16;6.60;28.90
16827;DHT22;8530;49.540;8.576;2023-02-28T09:33:47;6.40;29.00
16827;DHT22;8530;49.540;8.576;2023-02-28T09:36:14;6.20;29.40
16827;DHT22;8530;49.540;8.576;2023-02-28T09:38:40;6.00;29.40
16827;DHT22;8530;49.540;8.576;2023-02-28T09:41:13;5.80;30.00
16827;DHT22;8530;49.540;8.576;2023-02-28T09:43:43;5.70;29.80
16827;DHT22;8530;49.540;8.576;2023-02-28T09:46:18;5.70;29.90
16827;DHT22;8530;49.540;8.576;2023-02-28T09:48:50;5.70;30.10
16827;DHT22;8530;49.540;8.576;2023-02-28T09:51:28;5.70;30.40
16827;DHT22;8530;49.540;8.576;2023-02-28T09:53:57;5.70;30.60
16827;DHT22;8530;49.540;8.576;2023-02-28T09:56:26;5.60;30.60
16827;DHT22;8530;49.540;8.576;2023-02-28T09:58:56;5.60;30.90
16827;DHT22;8530;49.540;8.576;2023-02-28T10:01:29;5.70;30.90
16827;DHT22;8530;49.540;8.576;2023-02-28T10:04:03;5.70;31.20
16827;DHT22;8530;49.540;8.576;2023-02-28T10:06:36;5.70;31.20
16827;DHT22;8530;49.540;8.576;2023-02-28T10:09:08;5.70;31.40
16827;DHT22;8530;49.540;8.576;2023-02-28T10:11:40;5.70;31.60
16827;DHT22;8530;49.540;8.576;2023-02-28T10:14:14;5.80;31.80
16827;DHT22;8530;49.540;8.576;2023-02-28T10:16:44;5.90;32.00
16827;DHT22;8530;49.540;8.576;2023-02-28T10:19:19;5.90;31.80
16827;DHT22;8530;49.540;8.576;2023-02-28T10:21:52;5.80;31.80
16827;DHT22;8530;49.540;8.576;2023-02-28T10:24:26;5.80;32.10
16827;DHT22;8530;49.540;8.576;2023-02-28T10:27:00;5.70;32.20
16827;DHT22;8530;49.540;8.576;2023-02-28T10:29:28;5.70;32.50
16827;DHT22;8530;49.540;8.576;2023-02-28T10:31:56;5.70;32.40
16827;DHT22;8530;49.540;8.576;2023-02-28T10:34:24;5.70;32.50
16827;DHT22;8530;49.540;8.576;2023-02-28T10:36:51;5.60;32.60
16827;DHT22;8530;49.540;8.576;2023-02-28T10:39:38;5.70;32.80
16827;DHT22;8530;49.540;8.576;2023-02-28T10:42:19;5.80;33.00
16827;DHT22;8530;49.540;8.576;2023-02-28T10:44:46;5.80;33.00
16827;DHT22;8530;49.540;8.576;2023-02-28T10:47:14;6.00;33.20
16827;DHT22;8530;49.540;8.576;2023-02-28T10:49:48;6.10;33.30
16827;DHT22;8530;49.540;8.576;2023-02-28T10:52:33;6.30;33.30
16827;DHT22;8530;49.540;8.576;2023-02-28T10:55:15;6.40;33.20
16827;DHT22;8530;49.540;8.576;2023-02-28T10:57:42;6.60;33.20
16827;DHT22;8530;49.540;8.576;2023-02-28T11:00:14;6.60;33.00
16827;DHT22;8530;49.540;8.576;2023-02-28T11:02:41;6.70;33.10
16827;DHT22;8530;49.540;8.576;2023-02-28T11:05:26;6.80;33.20
16827;DHT22;8530;49.540;8.576;2023-02-28T11:07:55;6.80;33.00
16827;DHT22;8530;49.540;8.576;2023-02-28T11:10:25;6.80;32.90
16827;DHT22;8530;49.540;8.576;2023-02-28T11:12:55;6.80;32.90
16827;DHT22;8530;49.540;8.576;2023-02-28T11:15:26;6.80;33.00
16827;DHT22;8530;49.540;8.576;2023-02-28T11:17:55;6.80;33.00
16827;DHT22;8530;49.540;8.576;2023-02-28T11:20:26;6.80;32.90
16827;DHT22;8530;49.540;8.576;2023-02-28T11:22:55;6.60;32.80
16827;DHT22;8530;49.540;8.576;2023-02-28T11:25:25;6.50;33.00
16827;DHT22;8530;49.540;8.576;2023-02-28T11:27:54;6.30;33.00
16827;DHT22;8530;49.540;8.576;2023-02-28T11:30:26;6.40;33.30
16827;DHT22;8530;49.540;8.576;2023-02-28T11:32:53;6.40;33.30
16827;DHT22;8530;49.540;8.576;2023-02-28T11:35:26;6.40;33.30
16827;DHT22;8530;49.540;8.576;2023-02-28T11:37:55;6.40;33.30
16827;DHT22;8530;49.540;8.576;2023-02-28T11:40:28;6.40;33.30
16827;DHT22;8530;49.540;8.576;2023-02-28T11:43:06;6.60;33.40
16827;DHT22;8530;49.540;8.576;2023-02-28T11:45:45;6.90;33.40
16827;DHT22;8530;49.540;8.576;2023-02-28T11:48:22;7.10;33.30
16827;DHT22;8530;49.540;8.576;2023-02-28T11:50:58;7.40;33.30
16827;DHT22;8530;49.540;8.576;2023-02-28T11:53:39;7.50;33.10
16827;DHT22;8530;49.540;8.576;2023-02-28T11:56:12;7.70;33.00
16827;DHT22;8530;49.540;8.576;2023-02-28T11:58:47;7.70;32.80
16827;DHT22;8530;49.540;8.576;2023-02-28T12:01:25;7.80;32.70
16827;DHT22;8530;49.540;8.576;2023-02-28T12:04:00;7.80;32.30
16827;DHT22;8530;49.540;8.576;2023-02-28T12:06:33;7.90;32.50
16827;DHT22;8530;49.540;8.576;2023-02-28T12:09:17;8.00;32.50
16827;DHT22;8530;49.540;8.576;2023-02-28T12:11:51;8.10;32.40
16827;DHT22;8530;49.540;8.576;2023-02-28T12:14:41;8.20;32.30
16827;DHT22;8530;49.540;8.576;2023-02-28T12:17:21;8.30;32.30
16827;DHT22;8530;49.540;8.576;2023-02-28T12:19:52;8.30;32.00
16827;DHT22;8530;49.540;8.576;2023-02-28T12:22:37;8.30;32.00
16827;DHT22;8530;49.540;8.576;2023-02-28T12:25:38;8.30;31.80
16827;DHT22;8530;49.540;8.576;2023-02-28T12:28:09;8.30;31.80
16827;DHT22;8530;49.540;8.576;2023-02-28T12:30:42;8.30;31.90
16827;DHT22;8530;49.540;8.576;2023-02-28T12:33:14;8.30;32.00
16827;DHT22;8530;49.540;8.576;2023-02-28T12:35:47;8.30;31.90
16827;DHT22;8530;49.540;8.576;2023-02-28T12:38:19;8.40;31.90
16827;DHT22;8530;49.540;8.576;2023-02-28T12:40:52;8.30;31.70
16827;DHT22;8530;49.540;8.576;2023-02-28T12:43:21;8.30;31.80
16827;DHT22;8530;49.540;8.576;2023-02-28T12:45:51;8.20;31.70
16827;DHT22;8530;49.540;8.576;2023-02-28T12:48:24;8.30;31.80
16827;DHT22;8530;49.540;8.576;2023-02-28T12:50:52;8.30;31.80
16827;DHT22;8530;49.540;8.576;2023-02-28T12:53:26;8.20;31.70
16827;DHT22;8530;49.540;8.576;2023-02-28T12:56:02;8.10;31.50
16827;DHT22;8530;49.540;8.576;2023-02-28T12:58:34;8.10;32.20
16827;DHT22;8530;49.540;8.576;2023-02-28T13:01:18;8.20;31.70
16827;DHT22;8530;49.540;8.576;2023-02-28T13:04:19;8.20;31.60
16827;DHT22;8530;49.540;8.576;2023-02-28T13:09:52;7.80;31.40
16827;DHT22;8530;49.540;8.576;2023-02-28T13:12:19;7.80;31.70
16827;DHT22;8530;49.540;8.576;2023-02-28T13:14:48;7.70;31.60
16827;DHT22;8530;49.540;8.576;2023-02-28T13:17:19;7.90;31.80
16827;DHT22;8530;49.540;8.576;2023-02-28T13:19:56;7.80;31.60
16827;DHT22;8530;49.540;8.576;2023-02-28T13:22:38;7.80;31.40
16827;DHT22;8530;49.540;8.576;2023-02-28T13:31:32;7.70;31.80
16827;DHT22;8530;49.540;8.576;2023-02-28T13:34:13;7.80;31.70
16827;DHT22;8530;49.540;8.576;2023-02-28T13:36:41;7.80;31.60
16827;DHT22;8530;49.540;8.576;2023-02-28T13:39:46;7.90;31.70
16827;DHT22;8530;49.540;8.576;2023-02-28T13:42:32;8.00;31.80
16827;DHT22;8530;49.540;8.576;2023-02-28T13:45:21;8.10;31.70
16827;DHT22;8530;49.540;8.576;2023-02-28T13:47:54;8.00;31.40
16827;DHT22;8530;49.540;8.576;2023-02-28T13:50:26;7.90;31.40
16827;DHT22;8530;49.540;8.576;2023-02-28T13:55:57;7.90;31.60
16827;DHT22;8530;49.540;8.576;2023-02-28T13:58:36;7.90;31.50
16827;DHT22;8530;49.540;8.576;2023-02-28T14:01:22;7.90;31.50
16827;DHT22;8530;49.540;8.576;2023-02-28T14:04:14;8.00;31.70
16827;DHT22;8530;49.540;8.576;2023-02-28T14:06:49;8.10;31.70
16827;DHT22;8530;49.540;8.576;2023-02-28T14:09:23;8.10;31.40
16827;DHT22;8530;49.540;8.576;2023-02-28T14:11:51;8.00;31.40
16827;DHT22;8530;49.540;8.576;2023-02-28T14:17:19;7.80;31.60
16827;DHT22;8530;49.540;8.576;2023-02-28T14:19:47;7.90;31.80
16827;DHT22;8530;49.540;8.576;2023-02-28T14:22:40;7.90;31.80
16827;DHT22;8530;49.540;8.576;2023-02-28T14:25:17;8.00;31.70
16827;DHT22;8530;49.540;8.576;2023-02-28T14:27:48;8.00;31.60
16827;DHT22;8530;49.540;8.576;2023-02-28T14:30:37;7.90;31.60
16827;DHT22;8530;49.540;8.576;2023-02-28T14:33:19;8.00;31.80
16827;DHT22;8530;49.540;8.576;2023-02-28T14:36:03;7.90;31.60
16827;DHT22;8530;49.540;8.576;2023-02-28T14:38:33;7.80;31.60
16827;DHT22;8530;49.540;8.576;2023-02-28T14:41:04;7.70;31.60
16827;DHT22;8530;49.540;8.576;2023-02-28T14:43:31;7.70;31.70
16827;DHT22;8530;49.540;8.576;2023-02-28T14:46:02;7.70;31.70
16827;DHT22;8530;49.540;8.576;2023-02-28T14:48:33;7.70;31.90
16827;DHT22;8530;49.540;8.576;2023-02-28T14:51:01;7.80;32.10
16827;DHT22;8530;49.540;8.576;2023-02-28T14:53:30;7.80;32.00
16827;DHT22;8530;49.540;8.576;2023-02-28T14:56:01;7.80;32.00
16827;DHT22;8530;49.540;8.576;2023-02-28T14:58:30;7.80;32.00
16827;DHT22;8530;49.540;8.576;2023-02-28T15:00:58;7.80;32.10
16827;DHT22;8530;49.540;8.576;2023-02-28T15:03:33;7.80;32.00
16827;DHT22;8530;49.540;8.576;2023-02-28T15:06:01;7.70;31.90
16827;DHT22;8530;49.540;8.576;2023-02-28T15:08:29;7.60;32.40
16827;DHT22;8530;49.540;8.576;2023-02-28T15:11:02;7.50;31.90
16827;DHT22;8530;49.540;8.576;2023-02-28T15:13:36;7.40;31.90
16827;DHT22;8530;49.540;8.576;2023-02-28T15:16:05;7.40;32.00
16827;DHT22;8530;49.540;8.576;2023-02-28T15:18:43;7.30;32.00
16827;DHT22;8530;49.540;8.576;2023-02-28T15:21:12;7.30;32.10
16827;DHT22;8530;49.540;8.576;2023-02-28T15:23:41;7.30;32.20
16827;DHT22;8530;49.540;8.576;2023-02-28T15:26:12;7.20;32.10
16827;DHT22;8530;49.540;8.576;2023-02-28T15:28:39;7.20;32.20
16827;DHT22;8530;49.540;8.576;2023-02-28T15:31:21;7.10;32.20
16827;DHT22;8530;49.540;8.576;2023-02-28T15:33:55;7.00;32.30
16827;DHT22;8530;49.540;8.576;2023-02-28T15:36:25;7.00;32.40
16827;DHT22;8530;49.540;8.576;2023-02-28T15:38:53;7.00;32.50
16827;DHT22;8530;49.540;8.576;2023-02-28T15:41:27;6.90;32.50
16827;DHT22;8530;49.540;8.576;2023-02-28T15:44:13;7.00;32.60
16827;DHT22;8530;49.540;8.576;2023-02-28T15:46:43;6.90;32.60
16827;DHT22;8530;49.540;8.576;2023-02-28T15:49:19;6.90;32.60
16827;DHT22;8530;49.540;8.576;2023-02-28T15:51:49;6.80;32.70
16827;DHT22;8530;49.540;8.576;2023-02-28T15:54:20;6.80;32.70
16827;DHT22;8530;49.540;8.576;2023-02-28T15:56:52;6.80;32.80
16827;DHT22;8530;49.540;8.576;2023-02-28T15:59:21;6.70;32.90
16827;DHT22;8530;49.540;8.576;2023-02-28T16:02:03;6.70;33.00
16827;DHT22;8530;49.540;8.576;2023-02-28T16:04:31;6.70;33.10
16827;DHT22;8530;49.540;8.576;2023-02-28T16:07:02;6.60;33.00
16827;DHT22;8530;49.540;8.576;2023-02-28T16:09:30;6.60;33.10
16827;DHT22;8530;49.540;8.576;2023-02-28T16:11:59;6.50;33.10
16827;DHT22;8530;49.540;8.576;2023-02-28T16:14:28;6.50;33.20
16827;DHT22;8530;49.540;8.576;2023-02-28T16:17:02;6.50;33.30
16827;DHT22;8530;49.540;8.576;2023-02-28T16:19:31;6.40;33.40
16827;DHT22;8530;49.540;8.576;2023-02-28T16:21:58;6.40;33.50
16827;DHT22;8530;49.540;8.576;2023-02-28T16:24:25;6.40;34.10
16827;DHT22;8530;49.540;8.576;2023-02-28T16:26:54;6.30;33.60
16827;DHT22;8530;49.540;8.576;2023-02-28T16:29:24;6.30;33.80
16827;DHT22;8530;49.540;8.576;2023-02-28T16:31:51;6.30;33.80
16827;DHT22;8530;49.540;8.576;2023-02-28T16:34:18;6.30;33.90
16827;DHT22;8530;49.540;8.576;2023-02-28T16:36:48;6.20;33.90
16827;DHT22;8530;49.540;8.576;2023-02-28T16:39:14;6.20;34.10
16827;DHT22;8530;49.540;8.576;2023-02-28T16:41:42;6.10;34.00
16827;DHT22;8530;49.540;8.576;2023-02-28T16:44:11;6.10;34.10
16827;DHT22;8530;49.540;8.576;2023-02-28T16:46:39;6.00;34.20
16827;DHT22;8530;49.540;8.576;2023-02-28T16:49:10;6.00;34.30
16827;DHT22;8530;49.540;8.576;2023-02-28T16:51:37;5.90;34.30
16827;DHT22;8530;49.540;8.576;2023-02-28T16:54:05;5.90;34.40
16827;DHT22;8530;49.540;8.576;2023-02-28T16:56:32;5.80;34.40
16827;DHT22;8530;49.540;8.576;2023-02-28T16:59:01;5.70;34.50
16827;DHT22;8530;49.540;8.576;2023-02-28T17:01:28;5.60;34.60
16827;DHT22;8530;49.540;8.576;2023-02-28T17:03:56;5.60;34.70
16827;DHT22;8530;49.540;8.576;2023-02-28T17:06:24;5.50;34.80
16827;DHT22;8530;49.540;8.576;2023-02-28T17:08:53;5.50;34.90
16827;DHT22;8530;49.540;8.576;2023-02-28T17:11:22;5.40;35.00
16827;DHT22;8530;49.540;8.576;2023-02-28T17:13:48;5.30;35.00
16827;DHT22;8530;49.540;8.576;2023-02-28T17:16:22;5.30;35.10
16827;DHT22;8530;49.540;8.576;2023-02-28T17:18:50;5.20;35.20
16827;DHT22;8530;49.540;8.576;2023-02-28T17:21:17;5.10;35.20
16827;DHT22;8530;49.540;8.576;2023-02-28T17:23:44;5.10;35.90
16827;DHT22;8530;49.540;8.576;2023-02-28T17:26:14;5.00;35.40
16827;DHT22;8530;49.540;8.576;2023-02-28T17:28:45;4.90;35.60
16827;DHT22;8530;49.540;8.576;2023-02-28T17:31:12;4.90;35.70
16827;DHT22;8530;49.540;8.576;2023-02-28T17:33:39;4.80;35.70
16827;DHT22;8530;49.540;8.576;2023-02-28T17:36:10;4.80;35.90